sensor_id;sensor_type;location;lat;lon;timestamp;P1;durP1;ratioP1;P2;durP2;ratioP2
4547;SDS011;2286;51.570;7.090;2024-01-15T00:00:02;0.68;;;0.68;;
4547;SDS011;2286;51.570;7.090;2024-01-15T00:02:29;0.73;;;0.70;;
4547;SDS011;2286;51.570;7.090;2024-01-15T00:04:57;1.90;;;1.80;;
4547;SDS011;2286;51.570;7.090;2024-01-15T00:07:24;0.60;;;0.60;;
4547;SDS011;2286;51.570;7.090;2024-01-15T00:09:51;1.02;;;1.02;;
4547;SDS011;2286;51.570;7.090;2024-01-15T00:12:18;1.05;;;1.05;;
4547;SDS011;2286;51.570;7.090;2024-01-15T00:14:45;0.65;;;0.65;;
4547;SDS011;2286;51.570;7.090;2024-01-15T00:17:13;0.40;;;0.40;;
4547;SDS011;2286;51.570;7.090;2024-01-15T00:19:40;0.50;;;0.50;;
4547;SDS011;2286;51.570;7.090;2024-01-15T00:22:07;0.50;;;0.50;;
4547;SDS011;2286;51.570;7.090;2024-01-15T00:24:34;0.95;;;0.77;;
4547;SDS011;2286;51.570;7.090;2024-01-15T00:27:00;2.03;;;1.85;;
4547;SDS011;2286;51.570;7.090;2024-01-15T00:29:27;0.73;;;0.73;;
4547;SDS011;2286;51.570;7.090;2024-01-15T00:31:55;0.68;;;0.68;;
4547;SDS011;2286;51.570;7.090;2024-01-15T00:34:23;0.40;;;0.40;;
4547;SDS011;2286;51.570;7.090;2024-01-15T00:36:50;2.05;;;0.75;;
4547;SDS011;2286;51.570;7.090;2024-01-15T00:39:17;0.47;;;0.47;;
4547;SDS011;2286;51.570;7.090;2024-01-15T00:41:44;1.17;;;1.17;;
4547;SDS011;2286;51.570;7.090;2024-01-15T00:44:11;0.50;;;0.50;;
4547;SDS011;2286;51.570;7.090;2024-01-15T00:46:42;0.63;;;0.63;;
4547;SDS011;2286;51.570;7.090;2024-01-15T00:49:10;1.95;;;1.85;;
4547;SDS011;2286;51.570;7.090;2024-01-15T00:51:39;0.40;;;0.40;;
4547;SDS011;2286;51.570;7.090;2024-01-15T00:54:06;1.88;;;1.10;;
4547;SDS011;2286;51.570;7.090;2024-01-15T00:56:33;1.30;;;1.10;;
4547;SDS011;2286;51.570;7.090;2024-01-15T00:59:00;2.00;;;1.90;;
4547;SDS011;2286;51.570;7.090;2024-01-15T01:01:27;1.02;;;1.02;;
4547;SDS011;2286;51.570;7.090;2024-01-15T01:03:54;0.40;;;0.40;;
4547;SDS011;2286;51.570;7.090;2024-01-15T01:06:21;0.95;;;0.95;;
4547;SDS011;2286;51.570;7.090;2024-01-15T01:08:50;1.67;;;1.58;;
4547;SDS011;2286;51.570;7.090;2024-01-15T01:11:17;0.40;;;0.40;;
4547;SDS011;2286;51.570;7.090;2024-01-15T01:13:44;0.95;;;0.95;;
4547;SDS011;2286;51.570;7.090;2024-01-15T01:16:11;1.05;;;0.65;;
4547;SDS011;2286;51.570;7.090;2024-01-15T01:18:38;0.40;;;0.40;;
4547;SDS011;2286;51.570;7.090;2024-01-15T01:21:05;1.10;;;1.08;;
4547;SDS011;2286;51.570;7.090;2024-01-15T01:23:32;0.50;;;0.50;;
4547;SDS011;2286;51.570;7.090;2024-01-15T01:26:00;0.60;;;0.60;;
4547;SDS011;2286;51.570;7.090;2024-01-15T01:28:27;1.00;;;1.00;;
4547;SDS011;2286;51.570;7.090;2024-01-15T01:30:54;0.40;;;0.40;;
4547;SDS011;2286;51.570;7.090;2024-01-15T01:33:22;0.88;;;0.88;;
4547;SDS011;2286;51.570;7.090;2024-01-15T01:35:49;1.50;;;1.35;;
4547;SDS011;2286;51.570;7.090;2024-01-15T01:38:16;0.40;;;0.40;;
4547;SDS011;2286;51.570;7.090;2024-01-15T01:40:43;0.52;;;0.50;;
4547;SDS011;2286;51.570;7.090;2024-01-15T01:43:11;0.30;;;0.30;;
4547;SDS011;2286;51.570;7.090;2024-01-15T01:45:38;0.30;;;0.30;;
4547;SDS011;2286;51.570;7.090;2024-01-15T01:48:05;0.40;;;0.40;;
4547;SDS011;2286;51.570;7.090;2024-01-15T01:50:33;0.40;;;0.40;;
4547;SDS011;2286;51.570;7.090;2024-01-15T01:53:00;0.63;;;0.63;;
4547;SDS011;2286;51.570;7.090;2024-01-15T01:55:29;0.40;;;0.40;;
4547;SDS011;2286;51.570;7.090;2024-01-15T01:57:58;0.50;;;0.50;;
4547;SDS011;2286;51.570;7.090;2024-01-15T02:00:28;0.60;;;0.60;;
4547;SDS011;2286;51.570;7.090;2024-01-15T02:02:55;1.77;;;1.67;;
4547;SDS011;2286;51.570;7.090;2024-01-15T02:05:22;1.77;;;1.67;;
4547;SDS011;2286;51.570;7.090;2024-01-15T02:07:49;0.30;;;0.30;;
4547;SDS011;2286;51.570;7.090;2024-01-15T02:10:16;0.60;;;0.60;;
4547;SDS011;2286;51.570;7.090;2024-01-15T02:12:43;1.83;;;1.75;;
4547;SDS011;2286;51.570;7.090;2024-01-15T02:15:13;0.88;;;0.88;;
4547;SDS011;2286;51.570;7.090;2024-01-15T02:17:57;0.85;;;0.85;;
4547;SDS011;2286;51.570;7.090;2024-01-15T02:20:26;3.97;;;3.78;;
4547;SDS011;2286;51.570;7.090;2024-01-15T02:22:53;0.40;;;0.40;;
4547;SDS011;2286;51.570;7.090;2024-01-15T02:25:22;1.30;;;1.30;;
4547;SDS011;2286;51.570;7.090;2024-01-15T02:27:49;1.50;;;1.45;;
4547;SDS011;2286;51.570;7.090;2024-01-15T02:30:16;0.82;;;0.82;;
4547;SDS011;2286;51.570;7.090;2024-01-15T02:32:44;0.43;;;0.43;;
4547;SDS011;2286;51.570;7.090;2024-01-15T02:35:11;0.40;;;0.40;;
4547;SDS011;2286;51.570;7.090;2024-01-15T02:37:38;1.52;;;1.20;;
4547;SDS011;2286;51.570;7.090;2024-01-15T02:40:06;1.98;;;1.40;;
4547;SDS011;2286;51.570;7.090;2024-01-15T02:42:35;1.20;;;0.30;;
4547;SDS011;2286;51.570;7.090;2024-01-15T02:45:02;0.50;;;0.30;;
4547;SDS011;2286;51.570;7.090;2024-01-15T02:47:30;0.40;;;0.40;;
4547;SDS011;2286;51.570;7.090;2024-01-15T02:49:57;1.33;;;1.33;;
4547;SDS011;2286;51.570;7.090;2024-01-15T02:52:24;0.30;;;0.30;;
4547;SDS011;2286;51.570;7.090;2024-01-15T02:54:51;4.00;;;2.58;;
4547;SDS011;2286;51.570;7.090;2024-01-15T02:57:18;0.82;;;0.82;;
4547;SDS011;2286;51.570;7.090;2024-01-15T02:59:46;0.93;;;0.93;;
4547;SDS011;2286;51.570;7.090;2024-01-15T03:02:13;0.73;;;0.73;;
4547;SDS011;2286;51.570;7.090;2024-01-15T03:04:42;0.85;;;0.85;;
4547;SDS011;2286;51.570;7.090;2024-01-15T03:07:09;0.77;;;0.73;;
4547;SDS011;2286;51.570;7.090;2024-01-15T03:09:37;1.00;;;1.00;;
4547;SDS011;2286;51.570;7.090;2024-01-15T03:12:04;0.60;;;0.60;;
4547;SDS011;2286;51.570;7.090;2024-01-15T03:14:31;1.10;;;1.10;;
4547;SDS011;2286;51.570;7.090;2024-01-15T03:17:00;1.35;;;1.25;;
4547;SDS011;2286;51.570;7.090;2024-01-15T03:19:27;1.40;;;1.30;;
4547;SDS011;2286;51.570;7.090;2024-01-15T03:21:55;0.40;;;0.40;;
4547;SDS011;2286;51.570;7.090;2024-01-15T03:24:22;2.35;;;2.25;;
4547;SDS011;2286;51.570;7.090;2024-01-15T03:26:49;0.63;;;0.63;;
4547;SDS011;2286;51.570;7.090;2024-01-15T03:29:16;1.35;;;1.35;;
4547;SDS011;2286;51.570;7.090;2024-01-15T03:31:43;0.90;;;0.82;;
4547;SDS011;2286;51.570;7.090;2024-01-15T03:34:11;0.57;;;0.57;;
4547;SDS011;2286;51.570;7.090;2024-01-15T03:36:38;0.82;;;0.50;;
4547;SDS011;2286;51.570;7.090;2024-01-15T03:39:05;0.68;;;0.68;;
4547;SDS011;2286;51.570;7.090;2024-01-15T03:41:32;0.95;;;0.95;;
4547;SDS011;2286;51.570;7.090;2024-01-15T03:44:00;0.40;;;0.40;;
4547;SDS011;2286;51.570;7.090;2024-01-15T03:46:27;1.52;;;0.90;;
4547;SDS011;2286;51.570;7.090;2024-01-15T03:48:54;0.40;;;0.40;;
4547;SDS011;2286;51.570;7.090;2024-01-15T03:51:23;0.60;;;0.60;;
4547;SDS011;2286;51.570;7.090;2024-01-15T03:53:50;2.75;;;1.42;;
4547;SDS011;2286;51.570;7.090;2024-01-15T03:56:17;1.55;;;1.55;;
4547;SDS011;2286;51.570;7.090;2024-01-15T03:58:44;0.30;;;0.30;;
4547;SDS011;2286;51.570;7.090;2024-01-15T04:01:11;0.75;;;0.75;;
4547;SDS011;2286;51.570;7.090;2024-01-15T04:03:38;0.30;;;0.30;;
4547;SDS011;2286;51.570;7.090;2024-01-15T04:06:05;0.40;;;0.40;;
4547;SDS011;2286;51.570;7.090;2024-01-15T04:08:33;0.30;;;0.30;;
4547;SDS011;2286;51.570;7.090;2024-01-15T04:11:00;0.60;;;0.60;;
4547;SDS011;2286;51.570;7.090;2024-01-15T04:13:27;0.40;;;0.40;;
4547;SDS011;2286;51.570;7.090;2024-01-15T04:15:54;1.05;;;1.05;;
4547;SDS011;2286;51.570;7.090;2024-01-15T04:18:21;3.30;;;3.00;;
4547;SDS011;2286;51.570;7.090;2024-01-15T04:20:48;0.40;;;0.40;;
4547;SDS011;2286;51.570;7.090;2024-01-15T04:23:15;0.50;;;0.50;;
4547;SDS011;2286;51.570;7.090;2024-01-15T04:25:44;0.50;;;0.50;;
4547;SDS011;2286;51.570;7.090;2024-01-15T04:28:11;0.40;;;0.40;;
4547;SDS011;2286;51.570;7.090;2024-01-15T04:30:38;0.40;;;0.40;;
4547;SDS011;2286;51.570;7.090;2024-01-15T04:33:05;5.65;;;3.38;;
4547;SDS011;2286;51.570;7.090;2024-01-15T04:35:32;1.25;;;1.25;;
4547;SDS011;2286;51.570;7.090;2024-01-15T04:38:00;0.40;;;0.40;;
4547;SDS011;2286;51.570;7.090;2024-01-15T04:40:27;3.30;;;3.10;;
4547;SDS011;2286;51.570;7.090;2024-01-15T04:42:55;0.55;;;0.55;;
4547;SDS011;2286;51.570;7.090;2024-01-15T04:45:22;1.15;;;1.15;;
4547;SDS011;2286;51.570;7.090;2024-01-15T04:47:53;1.10;;;0.82;;
4547;SDS011;2286;51.570;7.090;2024-01-15T04:50:21;1.35;;;1.30;;
4547;SDS011;2286;51.570;7.090;2024-01-15T04:52:49;0.40;;;0.40;;
4547;SDS011;2286;51.570;7.090;2024-01-15T04:55:16;1.10;;;0.65;;
4547;SDS011;2286;51.570;7.090;2024-01-15T04:57:43;1.20;;;1.20;;
4547;SDS011;2286;51.570;7.090;2024-01-15T05:00:12;0.93;;;0.93;;
4547;SDS011;2286;51.570;7.090;2024-01-15T05:02:39;0.30;;;0.30;;
4547;SDS011;2286;51.570;7.090;2024-01-15T05:05:06;0.30;;;0.30;;
4547;SDS011;2286;51.570;7.090;2024-01-15T05:07:34;0.50;;;0.50;;
4547;SDS011;2286;51.570;7.090;2024-01-15T05:10:01;0.30;;;0.30;;
4547;SDS011;2286;51.570;7.090;2024-01-15T05:12:28;0.30;;;0.30;;
4547;SDS011;2286;51.570;7.090;2024-01-15T05:14:55;0.40;;;0.40;;
4547;SDS011;2286;51.570;7.090;2024-01-15T05:17:24;0.70;;;0.70;;
4547;SDS011;2286;51.570;7.090;2024-01-15T05:19:51;0.93;;;0.93;;
4547;SDS011;2286;51.570;7.090;2024-01-15T05:22:18;0.30;;;0.30;;
4547;SDS011;2286;51.570;7.090;2024-01-15T05:24:46;0.80;;;0.80;;
4547;SDS011;2286;51.570;7.090;2024-01-15T05:27:14;0.50;;;0.50;;
4547;SDS011;2286;51.570;7.090;2024-01-15T05:29:41;2.90;;;2.70;;
4547;SDS011;2286;51.570;7.090;2024-01-15T05:32:08;0.52;;;0.52;;
4547;SDS011;2286;51.570;7.090;2024-01-15T05:34:36;2.95;;;1.50;;
4547;SDS011;2286;51.570;7.090;2024-01-15T05:37:03;0.40;;;0.40;;
4547;SDS011;2286;51.570;7.090;2024-01-15T05:39:30;0.60;;;0.60;;
4547;SDS011;2286;51.570;7.090;2024-01-15T05:41:58;0.40;;;0.40;;
4547;SDS011;2286;51.570;7.090;2024-01-15T05:44:25;1.88;;;0.95;;
4547;SDS011;2286;51.570;7.090;2024-01-15T05:46:53;0.40;;;0.40;;
4547;SDS011;2286;51.570;7.090;2024-01-15T05:49:20;0.40;;;0.40;;
4547;SDS011;2286;51.570;7.090;2024-01-15T05:51:48;0.60;;;0.60;;
4547;SDS011;2286;51.570;7.090;2024-01-15T05:54:17;0.68;;;0.68;;
4547;SDS011;2286;51.570;7.090;2024-01-15T05:56:45;0.30;;;0.30;;
4547;SDS011;2286;51.570;7.090;2024-01-15T05:59:12;1.50;;;1.45;;
4547;SDS011;2286;51.570;7.090;2024-01-15T06:01:39;0.30;;;0.30;;
4547;SDS011;2286;51.570;7.090;2024-01-15T06:04:06;0.80;;;0.80;;
4547;SDS011;2286;51.570;7.090;2024-01-15T06:06:33;0.30;;;0.30;;
4547;SDS011;2286;51.570;7.090;2024-01-15T06:09:01;3.22;;;2.45;;
4547;SDS011;2286;51.570;7.090;2024-01-15T06:11:30;1.48;;;1.25;;
4547;SDS011;2286;51.570;7.090;2024-01-15T06:13:57;0.77;;;0.77;;
4547;SDS011;2286;51.570;7.090;2024-01-15T06:16:25;2.35;;;2.25;;
4547;SDS011;2286;51.570;7.090;2024-01-15T06:18:52;0.30;;;0.30;;
4547;SDS011;2286;51.570;7.090;2024-01-15T06:21:19;0.65;;;0.65;;
4547;SDS011;2286;51.570;7.090;2024-01-15T06:23:47;1.40;;;1.30;;
4547;SDS011;2286;51.570;7.090;2024-01-15T06:26:15;0.40;;;0.40;;
4547;SDS011;2286;51.570;7.090;2024-01-15T06:28:42;0.88;;;0.88;;
4547;SDS011;2286;51.570;7.090;2024-01-15T06:31:09;0.93;;;0.93;;
4547;SDS011;2286;51.570;7.090;2024-01-15T06:33:36;1.08;;;0.80;;
4547;SDS011;2286;51.570;7.090;2024-01-15T06:36:03;0.63;;;0.63;;
4547;SDS011;2286;51.570;7.090;2024-01-15T06:38:31;0.55;;;0.55;;
4547;SDS011;2286;51.570;7.090;2024-01-15T06:40:58;0.30;;;0.30;;
4547;SDS011;2286;51.570;7.090;2024-01-15T06:43:27;0.90;;;0.90;;
4547;SDS011;2286;51.570;7.090;2024-01-15T06:45:54;0.30;;;0.30;;
4547;SDS011;2286;51.570;7.090;2024-01-15T06:48:21;0.30;;;0.30;;
4547;SDS011;2286;51.570;7.090;2024-01-15T06:50:48;0.55;;;0.55;;
4547;SDS011;2286;51.570;7.090;2024-01-15T06:53:15;0.45;;;0.45;;
4547;SDS011;2286;51.570;7.090;2024-01-15T06:55:42;0.30;;;0.30;;
4547;SDS011;2286;51.570;7.090;2024-01-15T06:58:09;0.30;;;0.30;;
4547;SDS011;2286;51.570;7.090;2024-01-15T07:00:38;0.30;;;0.30;;
4547;SDS011;2286;51.570;7.090;2024-01-15T07:03:05;0.40;;;0.40;;
4547;SDS011;2286;51.570;7.090;2024-01-15T07:05:33;0.30;;;0.30;;
4547;SDS011;2286;51.570;7.090;2024-01-15T07:08:01;0.30;;;0.30;;
4547;SDS011;2286;51.570;7.090;2024-01-15T07:10:29;0.30;;;0.30;;
4547;SDS011;2286;51.570;7.090;2024-01-15T07:12:56;1.88;;;1.85;;
4547;SDS011;2286;51.570;7.090;2024-01-15T07:15:23;1.05;;;1.05;;
4547;SDS011;2286;51.570;7.090;2024-01-15T07:17:51;0.30;;;0.30;;
4547;SDS011;2286;51.570;7.090;2024-01-15T07:20:18;0.30;;;0.30;;
4547;SDS011;2286;51.570;7.090;2024-01-15T07:22:45;0.40;;;0.40;;
4547;SDS011;2286;51.570;7.090;2024-01-15T07:25:12;0.30;;;0.30;;
4547;SDS011;2286;51.570;7.090;2024-01-15T07:27:39;0.30;;;0.30;;
4547;SDS011;2286;51.570;7.090;2024-01-15T07:30:10;0.35;;;0.35;;
4547;SDS011;2286;51.570;7.090;2024-01-15T07:32:37;0.30;;;0.30;;
4547;SDS011;2286;51.570;7.090;2024-01-15T07:35:07;0.30;;;0.30;;
4547;SDS011;2286;51.570;7.090;2024-01-15T07:37:34;0.30;;;0.30;;
4547;SDS011;2286;51.570;7.090;2024-01-15T07:40:02;0.30;;;0.30;;
4547;SDS011;2286;51.570;7.090;2024-01-15T07:42:30;0.40;;;0.40;;
4547;SDS011;2286;51.570;7.090;2024-01-15T07:44:57;0.40;;;0.40;;
4547;SDS011;2286;51.570;7.090;2024-01-15T07:47:24;1.15;;;1.05;;
4547;SDS011;2286;51.570;7.090;2024-01-15T07:49:52;0.47;;;0.47;;
4547;SDS011;2286;51.570;7.090;2024-01-15T07:52:22;1.08;;;1.02;;
4547;SDS011;2286;51.570;7.090;2024-01-15T07:54:49;0.30;;;0.30;;
4547;SDS011;2286;51.570;7.090;2024-01-15T07:57:16;0.30;;;0.30;;
4547;SDS011;2286;51.570;7.090;2024-01-15T07:59:43;0.30;;;0.30;;
4547;SDS011;2286;51.570;7.090;2024-01-15T08:02:10;0.30;;;0.30;;
4547;SDS011;2286;51.570;7.090;2024-01-15T08:04:37;0.40;;;0.40;;
4547;SDS011;2286;51.570;7.090;2024-01-15T08:07:04;0.30;;;0.30;;
4547;SDS011;2286;51.570;7.090;2024-01-15T08:09:33;0.30;;;0.30;;
4547;SDS011;2286;51.570;7.090;2024-01-15T08:12:00;2.35;;;1.50;;
4547;SDS011;2286;51.570;7.090;2024-01-15T08:14:27;0.30;;;0.30;;
4547;SDS011;2286;51.570;7.090;2024-01-15T08:16:54;0.30;;;0.30;;
4547;SDS011;2286;51.570;7.090;2024-01-15T08:19:21;0.30;;;0.30;;
4547;SDS011;2286;51.570;7.090;2024-01-15T08:21:48;0.40;;;0.40;;
4547;SDS011;2286;51.570;7.090;2024-01-15T08:24:16;2.67;;;1.30;;
4547;SDS011;2286;51.570;7.090;2024-01-15T08:26:44;0.30;;;0.30;;
4547;SDS011;2286;51.570;7.090;2024-01-15T08:29:11;1.85;;;1.20;;
4547;SDS011;2286;51.570;7.090;2024-01-15T08:31:38;0.30;;;0.30;;
4547;SDS011;2286;51.570;7.090;2024-01-15T08:34:05;0.30;;;0.30;;
4547;SDS011;2286;51.570;7.090;2024-01-15T08:36:33;0.30;;;0.30;;
4547;SDS011;2286;51.570;7.090;2024-01-15T08:39:01;0.30;;;0.30;;
4547;SDS011;2286;51.570;7.090;2024-01-15T08:41:29;0.77;;;0.77;;
4547;SDS011;2286;51.570;7.090;2024-01-15T08:43:58;0.30;;;0.30;;
4547;SDS011;2286;51.570;7.090;2024-01-15T08:46:25;0.30;;;0.30;;
4547;SDS011;2286;51.570;7.090;2024-01-15T08:48:52;0.30;;;0.30;;
4547;SDS011;2286;51.570;7.090;2024-01-15T08:51:19;0.30;;;0.30;;
4547;SDS011;2286;51.570;7.090;2024-01-15T08:53:47;0.40;;;0.40;;
4547;SDS011;2286;51.570;7.090;2024-01-15T08:56:14;0.50;;;0.50;;
4547;SDS011;2286;51.570;7.090;2024-01-15T08:58:41;0.40;;;0.30;;
4547;SDS011;2286;51.570;7.090;2024-01-15T09:01:09;0.30;;;0.30;;
4547;SDS011;2286;51.570;7.090;2024-01-15T09:03:36;0.30;;;0.30;;
4547;SDS011;2286;51.570;7.090;2024-01-15T09:06:03;0.30;;;0.30;;
4547;SDS011;2286;51.570;7.090;2024-01-15T09:08:31;0.93;;;0.93;;
4547;SDS011;2286;51.570;7.090;2024-01-15T09:10:58;0.30;;;0.30;;
4547;SDS011;2286;51.570;7.090;2024-01-15T09:13:27;0.30;;;0.30;;
4547;SDS011;2286;51.570;7.090;2024-01-15T09:15:55;0.30;;;0.30;;
4547;SDS011;2286;51.570;7.090;2024-01-15T09:18:23;0.75;;;0.75;;
4547;SDS011;2286;51.570;7.090;2024-01-15T09:20:50;0.57;;;0.57;;
4547;SDS011;2286;51.570;7.090;2024-01-15T09:23:17;0.40;;;0.40;;
4547;SDS011;2286;51.570;7.090;2024-01-15T09:25:44;0.30;;;0.30;;
4547;SDS011;2286;51.570;7.090;2024-01-15T09:28:11;0.40;;;0.40;;
4547;SDS011;2286;51.570;7.090;2024-01-15T09:30:38;0.40;;;0.40;;
4547;SDS011;2286;51.570;7.090;2024-01-15T09:33:05;0.30;;;0.30;;
4547;SDS011;2286;51.570;7.090;2024-01-15T09:35:34;0.30;;;0.30;;
4547;SDS011;2286;51.570;7.090;2024-01-15T09:38:02;0.30;;;0.30;;
4547;SDS011;2286;51.570;7.090;2024-01-15T09:40:31;0.73;;;0.73;;
4547;SDS011;2286;51.570;7.090;2024-01-15T09:42:59;0.40;;;0.40;;
4547;SDS011;2286;51.570;7.090;2024-01-15T09:45:27;0.30;;;0.30;;
4547;SDS011;2286;51.570;7.090;2024-01-15T09:47:55;1.00;;;0.95;;
4547;SDS011;2286;51.570;7.090;2024-01-15T09:50:23;0.30;;;0.30;;
4547;SDS011;2286;51.570;7.090;2024-01-15T09:52:51;0.30;;;0.30;;
4547;SDS011;2286;51.570;7.090;2024-01-15T09:55:19;0.30;;;0.30;;
4547;SDS011;2286;51.570;7.090;2024-01-15T09:57:46;0.73;;;0.73;;
4547;SDS011;2286;51.570;7.090;2024-01-15T10:00:13;0.30;;;0.30;;
4547;SDS011;2286;51.570;7.090;2024-01-15T10:02:43;0.30;;;0.30;;
4547;SDS011;2286;51.570;7.090;2024-01-15T10:05:10;0.93;;;0.85;;
4547;SDS011;2286;51.570;7.090;2024-01-15T10:07:37;1.27;;;1.25;;
4547;SDS011;2286;51.570;7.090;2024-01-15T10:10:07;0.30;;;0.30;;
4547;SDS011;2286;51.570;7.090;2024-01-15T10:12:36;1.40;;;1.30;;
4547;SDS011;2286;51.570;7.090;2024-01-15T10:15:05;0.40;;;0.40;;
4547;SDS011;2286;51.570;7.090;2024-01-15T10:17:36;0.80;;;0.80;;
4547;SDS011;2286;51.570;7.090;2024-01-15T10:20:07;0.63;;;0.63;;
4547;SDS011;2286;51.570;7.090;2024-01-15T10:22:35;0.43;;;0.43;;
4547;SDS011;2286;51.570;7.090;2024-01-15T10:25:05;0.40;;;0.40;;
4547;SDS011;2286;51.570;7.090;2024-01-15T10:27:34;0.35;;;0.35;;
4547;SDS011;2286;51.570;7.090;2024-01-15T10:30:01;0.50;;;0.50;;
4547;SDS011;2286;51.570;7.090;2024-01-15T10:32:28;0.30;;;0.30;;
4547;SDS011;2286;51.570;7.090;2024-01-15T10:34:55;0.60;;;0.60;;
4547;SDS011;2286;51.570;7.090;2024-01-15T10:37:23;0.70;;;0.70;;
4547;SDS011;2286;51.570;7.090;2024-01-15T10:39:52;0.30;;;0.30;;
4547;SDS011;2286;51.570;7.090;2024-01-15T10:42:19;0.30;;;0.30;;
4547;SDS011;2286;51.570;7.090;2024-01-15T10:44:47;0.30;;;0.30;;
4547;SDS011;2286;51.570;7.090;2024-01-15T10:47:14;0.43;;;0.43;;
4547;SDS011;2286;51.570;7.090;2024-01-15T10:49:42;0.30;;;0.30;;
4547;SDS011;2286;51.570;7.090;2024-01-15T10:52:09;0.30;;;0.30;;
4547;SDS011;2286;51.570;7.090;2024-01-15T10:54:37;0.45;;;0.45;;
4547;SDS011;2286;51.570;7.090;2024-01-15T10:57:05;0.32;;;0.32;;
4547;SDS011;2286;51.570;7.090;2024-01-15T10:59:32;0.30;;;0.30;;
4547;SDS011;2286;51.570;7.090;2024-01-15T11:02:00;0.40;;;0.40;;
4547;SDS011;2286;51.570;7.090;2024-01-15T11:04:28;1.38;;;1.38;;
4547;SDS011;2286;51.570;7.090;2024-01-15T11:06:58;0.40;;;0.30;;
4547;SDS011;2286;51.570;7.090;2024-01-15T11:09:26;0.30;;;0.30;;
4547;SDS011;2286;51.570;7.090;2024-01-15T11:11:54;0.30;;;0.30;;
4547;SDS011;2286;51.570;7.090;2024-01-15T11:14:34;0.32;;;0.32;;
4547;SDS011;2286;51.570;7.090;2024-01-15T11:17:02;0.30;;;0.30;;
4547;SDS011;2286;51.570;7.090;2024-01-15T11:19:36;2.30;;;0.93;;
4547;SDS011;2286;51.570;7.090;2024-01-15T11:22:05;1.20;;;1.10;;
4547;SDS011;2286;51.570;7.090;2024-01-15T11:24:37;0.30;;;0.30;;
4547;SDS011;2286;51.570;7.090;2024-01-15T11:27:05;0.30;;;0.30;;
4547;SDS011;2286;51.570;7.090;2024-01-15T11:29:33;0.82;;;0.82;;
4547;SDS011;2286;51.570;7.090;2024-01-15T11:32:04;0.30;;;0.30;;
4547;SDS011;2286;51.570;7.090;2024-01-15T11:37:27;0.30;;;0.30;;
4547;SDS011;2286;51.570;7.090;2024-01-15T11:39:55;0.30;;;0.30;;
4547;SDS011;2286;51.570;7.090;2024-01-15T11:42:26;0.30;;;0.30;;
4547;SDS011;2286;51.570;7.090;2024-01-15T11:44:53;6.60;;;1.95;;
4547;SDS011;2286;51.570;7.090;2024-01-15T11:47:32;0.30;;;0.30;;
4547;SDS011;2286;51.570;7.090;2024-01-15T11:50:35;0.30;;;0.30;;
4547;SDS011;2286;51.570;7.090;2024-01-15T11:53:05;0.30;;;0.30;;
4547;SDS011;2286;51.570;7.090;2024-01-15T11:55:42;0.30;;;0.30;;
4547;SDS011;2286;51.570;7.090;2024-01-15T11:58:11;0.30;;;0.30;;
4547;SDS011;2286;51.570;7.090;2024-01-15T12:00:39;0.30;;;0.30;;
4547;SDS011;2286;51.570;7.090;2024-01-15T12:03:09;0.50;;;0.50;;
4547;SDS011;2286;51.570;7.090;2024-01-15T12:05:37;0.65;;;0.65;;
4547;SDS011;2286;51.570;7.090;2024-01-15T12:08:04;1.15;;;1.15;;
4547;SDS011;2286;51.570;7.090;2024-01-15T12:10:35;0.50;;;0.50;;
4547;SDS011;2286;51.570;7.090;2024-01-15T12:13:04;0.40;;;0.40;;
4547;SDS011;2286;51.570;7.090;2024-01-15T12:15:32;9.55;;;8.55;;
4547;SDS011;2286;51.570;7.090;2024-01-15T12:18:00;9.95;;;8.73;;
4547;SDS011;2286;51.570;7.090;2024-01-15T12:20:30;12.45;;;7.85;;
4547;SDS011;2286;51.570;7.090;2024-01-15T12:22:59;11.20;;;8.20;;
4547;SDS011;2286;51.570;7.090;2024-01-15T12:25:28;9.65;;;8.75;;
4547;SDS011;2286;51.570;7.090;2024-01-15T12:27:56;9.60;;;8.57;;
4547;SDS011;2286;51.570;7.090;2024-01-15T12:30:25;8.45;;;7.55;;
4547;SDS011;2286;51.570;7.090;2024-01-15T12:32:52;14.20;;;7.45;;
4547;SDS011;2286;51.570;7.090;2024-01-15T12:35:19;10.02;;;7.05;;
4547;SDS011;2286;51.570;7.090;2024-01-15T12:37:48;7.00;;;6.15;;
4547;SDS011;2286;51.570;7.090;2024-01-15T12:40:19;6.82;;;6.15;;
4547;SDS011;2286;51.570;7.090;2024-01-15T12:42:46;5.43;;;4.85;;
4547;SDS011;2286;51.570;7.090;2024-01-15T12:45:13;5.50;;;5.00;;
4547;SDS011;2286;51.570;7.090;2024-01-15T12:47:41;10.48;;;4.35;;
4547;SDS011;2286;51.570;7.090;2024-01-15T12:50:08;9.73;;;4.40;;
4547;SDS011;2286;51.570;7.090;2024-01-15T12:52:36;6.30;;;5.15;;
4547;SDS011;2286;51.570;7.090;2024-01-15T12:55:05;4.35;;;3.92;;
4547;SDS011;2286;51.570;7.090;2024-01-15T12:57:34;6.35;;;4.03;;
4547;SDS011;2286;51.570;7.090;2024-01-15T13:00:01;6.10;;;3.60;;
4547;SDS011;2286;51.570;7.090;2024-01-15T13:02:31;6.10;;;4.10;;
4547;SDS011;2286;51.570;7.090;2024-01-15T13:04:59;7.35;;;4.30;;
4547;SDS011;2286;51.570;7.090;2024-01-15T13:07:26;3.05;;;2.85;;
4547;SDS011;2286;51.570;7.090;2024-01-15T13:09:53;3.75;;;2.90;;
4547;SDS011;2286;51.570;7.090;2024-01-15T13:12:22;3.90;;;3.10;;
4547;SDS011;2286;51.570;7.090;2024-01-15T13:14:49;5.75;;;3.47;;
4547;SDS011;2286;51.570;7.090;2024-01-15T13:17:16;6.45;;;3.50;;
4547;SDS011;2286;51.570;7.090;2024-01-15T13:19:43;5.00;;;3.17;;
4547;SDS011;2286;51.570;7.090;2024-01-15T13:22:10;5.53;;;2.97;;
4547;SDS011;2286;51.570;7.090;2024-01-15T13:24:39;4.78;;;3.50;;
4547;SDS011;2286;51.570;7.090;2024-01-15T13:27:06;4.10;;;3.10;;
4547;SDS011;2286;51.570;7.090;2024-01-15T13:29:34;4.78;;;3.20;;
4547;SDS011;2286;51.570;7.090;2024-01-15T13:32:01;5.32;;;3.08;;
4547;SDS011;2286;51.570;7.090;2024-01-15T13:34:30;5.63;;;3.40;;
4547;SDS011;2286;51.570;7.090;2024-01-15T13:36:57;3.70;;;2.78;;
4547;SDS011;2286;51.570;7.090;2024-01-15T13:39:23;2.88;;;2.58;;
4547;SDS011;2286;51.570;7.090;2024-01-15T13:41:51;7.93;;;2.60;;
4547;SDS011;2286;51.570;7.090;2024-01-15T13:44:18;4.50;;;2.30;;
4547;SDS011;2286;51.570;7.090;2024-01-15T13:46:47;6.82;;;2.30;;
4547;SDS011;2286;51.570;7.090;2024-01-15T13:49:14;6.35;;;2.30;;
4547;SDS011;2286;51.570;7.090;2024-01-15T13:51:41;2.88;;;1.38;;
4547;SDS011;2286;51.570;7.090;2024-01-15T13:54:08;2.30;;;2.00;;
4547;SDS011;2286;51.570;7.090;2024-01-15T13:56:35;3.83;;;1.75;;
4547;SDS011;2286;51.570;7.090;2024-01-15T13:59:02;2.85;;;1.73;;
4547;SDS011;2286;51.570;7.090;2024-01-15T14:01:30;4.03;;;2.08;;
4547;SDS011;2286;51.570;7.090;2024-01-15T14:03:59;4.68;;;2.42;;
4547;SDS011;2286;51.570;7.090;2024-01-15T14:06:26;9.80;;;3.03;;
4547;SDS011;2286;51.570;7.090;2024-01-15T14:08:53;3.10;;;2.60;;
4547;SDS011;2286;51.570;7.090;2024-01-15T14:11:20;5.97;;;3.45;;
4547;SDS011;2286;51.570;7.090;2024-01-15T14:13:48;5.85;;;2.80;;
4547;SDS011;2286;51.570;7.090;2024-01-15T14:16:15;4.13;;;3.17;;
4547;SDS011;2286;51.570;7.090;2024-01-15T14:18:42;3.25;;;2.95;;
4547;SDS011;2286;51.570;7.090;2024-01-15T14:21:10;3.38;;;2.83;;
4547;SDS011;2286;51.570;7.090;2024-01-15T14:23:37;2.95;;;2.75;;
4547;SDS011;2286;51.570;7.090;2024-01-15T14:26:04;3.00;;;2.70;;
4547;SDS011;2286;51.570;7.090;2024-01-15T14:28:31;8.07;;;3.55;;
4547;SDS011;2286;51.570;7.090;2024-01-15T14:30:58;3.45;;;3.15;;
4547;SDS011;2286;51.570;7.090;2024-01-15T14:33:25;6.93;;;4.20;;
4547;SDS011;2286;51.570;7.090;2024-01-15T14:35:52;4.40;;;4.00;;
4547;SDS011;2286;51.570;7.090;2024-01-15T14:38:21;4.45;;;4.00;;
4547;SDS011;2286;51.570;7.090;2024-01-15T14:40:48;4.85;;;4.43;;
4547;SDS011;2286;51.570;7.090;2024-01-15T14:43:15;4.50;;;4.10;;
4547;SDS011;2286;51.570;7.090;2024-01-15T14:45:42;5.25;;;4.75;;
4547;SDS011;2286;51.570;7.090;2024-01-15T14:48:10;5.40;;;4.93;;
4547;SDS011;2286;51.570;7.090;2024-01-15T14:50:38;5.88;;;4.15;;
4547;SDS011;2286;51.570;7.090;2024-01-15T14:53:05;4.57;;;4.05;;
4547;SDS011;2286;51.570;7.090;2024-01-15T14:55:34;8.73;;;4.30;;
4547;SDS011;2286;51.570;7.090;2024-01-15T14:58:01;5.20;;;2.85;;
4547;SDS011;2286;51.570;7.090;2024-01-15T15:00:28;4.50;;;3.92;;
4547;SDS011;2286;51.570;7.090;2024-01-15T15:02:55;4.95;;;3.10;;
4547;SDS011;2286;51.570;7.090;2024-01-15T15:05:22;5.15;;;3.45;;
4547;SDS011;2286;51.570;7.090;2024-01-15T15:07:50;3.90;;;2.95;;
4547;SDS011;2286;51.570;7.090;2024-01-15T15:10:17;3.45;;;2.60;;
4547;SDS011;2286;51.570;7.090;2024-01-15T15:12:46;5.80;;;4.13;;
4547;SDS011;2286;51.570;7.090;2024-01-15T15:15:13;3.85;;;2.53;;
4547;SDS011;2286;51.570;7.090;2024-01-15T15:17:41;4.35;;;2.67;;
4547;SDS011;2286;51.570;7.090;2024-01-15T15:20:09;4.10;;;2.38;;